sensor_id;sensor_type;location;lat;lon;timestamp;temperature;humidity
33095;DHT22;19459;53.044;8.910;2023-06-10T00:02:15;16.60;99.90
33095;DHT22;19459;53.044;8.910;2023-06-10T00:04:42;16.50;99.90
33095;DHT22;19459;53.044;8.910;2023-06-10T00:07:08;16.50;99.90
33095;DHT22;19459;53.044;8.910;2023-06-10T00:09:38;16.40;99.90
33095;DHT22;19459;53.044;8.910;2023-06-10T00:12:05;16.40;99.90
33095;DHT22;19459;53.044;8.910;2023-06-10T00:14:32;16.40;99.90
33095;DHT22;19459;53.044;8.910;2023-06-10T00:16:58;16.30;99.90
33095;DHT22;19459;53.044;8.910;2023-06-10T00:19:25;16.30;99.90
33095;DHT22;19459;53.044;8.910;2023-06-10T00:21:56;16.30;99.90
33095;DHT22;19459;53.044;8.910;2023-06-10T00:24:22;16.30;99.90
33095;DHT22;19459;53.044;8.910;2023-06-10T00:26:48;16.30;99.90
33095;DHT22;19459;53.044;8.910;2023-06-10T00:29:14;16.20;99.90
33095;DHT22;19459;53.044;8.910;2023-06-10T00:31:41;16.20;99.90
33095;DHT22;19459;53.044;8.910;2023-06-10T00:34:07;16.20;99.90
33095;DHT22;19459;53.044;8.910;2023-06-10T00:36:33;16.10;99.90
33095;DHT22;19459;53.044;8.910;2023-06-10T00:38:59;16.10;99.90
33095;DHT22;19459;53.044;8.910;2023-06-10T00:41:25;16.00;99.90
33095;DHT22;19459;53.044;8.910;2023-06-10T00:43:54;16.00;99.90
33095;DHT22;19459;53.044;8.910;2023-06-10T00:46:20;15.90;99.90
33095;DHT22;19459;53.044;8.910;2023-06-10T00:48:46;15.90;99.90
33095;DHT22;19459;53.044;8.910;2023-06-10T00:51:12;15.80;99.90
33095;DHT22;19459;53.044;8.910;2023-06-10T00:53:39;15.80;99.90
33095;DHT22;19459;53.044;8.910;2023-06-10T00:56:07;15.70;99.90
33095;DHT22;19459;53.044;8.910;2023-06-10T00:58:33;15.70;99.90
33095;DHT22;19459;53.044;8.910;2023-06-10T01:00:59;15.70;99.90
33095;DHT22;19459;53.044;8.910;2023-06-10T01:03:25;15.70;99.90
33095;DHT22;19459;53.044;8.910;2023-06-10T01:06:00;15.60;99.90
33095;DHT22;19459;53.044;8.910;2023-06-10T01:11:10;15.60;99.90
33095;DHT22;19459;53.044;8.910;2023-06-10T01:13:41;15.50;99.90
33095;DHT22;19459;53.044;8.910;2023-06-10T01:16:09;15.50;99.90
33095;DHT22;19459;53.044;8.910;2023-06-10T01:18:35;15.50;99.90
33095;DHT22;19459;53.044;8.910;2023-06-10T01:21:01;15.40;99.90
33095;DHT22;19459;53.044;8.910;2023-06-10T01:23:27;15.40;99.90
33095;DHT22;19459;53.044;8.910;2023-06-10T01:26:09;15.40;99.90
33095;DHT22;19459;53.044;8.910;2023-06-10T01:28:38;15.40;99.90
33095;DHT22;19459;53.044;8.910;2023-06-10T01:33:52;15.30;99.90
33095;DHT22;19459;53.044;8.910;2023-06-10T01:36:19;15.30;99.90
33095;DHT22;19459;53.044;8.910;2023-06-10T01:38:48;15.20;99.90
33095;DHT22;19459;53.044;8.910;2023-06-10T01:41:18;15.20;99.90
33095;DHT22;19459;53.044;8.910;2023-06-10T01:43:47;15.20;99.90
33095;DHT22;19459;53.044;8.910;2023-06-10T01:46:14;15.10;99.90
33095;DHT22;19459;53.044;8.910;2023-06-10T01:48:44;15.10;99.90
33095;DHT22;19459;53.044;8.910;2023-06-10T01:51:09;15.10;99.90
33095;DHT22;19459;53.044;8.910;2023-06-10T01:53:35;15.10;99.90
33095;DHT22;19459;53.044;8.910;2023-06-10T01:56:01;15.10;99.90
33095;DHT22;19459;53.044;8.910;2023-06-10T01:58:27;15.00;99.90
33095;DHT22;19459;53.044;8.910;2023-06-10T02:00:53;15.00;99.90
33095;DHT22;19459;53.044;8.910;2023-06-10T02:03:18;14.90;99.90
33095;DHT22;19459;53.044;8.910;2023-06-10T02:05:44;14.90;99.90
33095;DHT22;19459;53.044;8.910;2023-06-10T02:08:10;14.90;99.90
33095;DHT22;19459;53.044;8.910;2023-06-10T02:10:36;14.80;99.90
33095;DHT22;19459;53.044;8.910;2023-06-10T02:13:02;14.80;99.90
33095;DHT22;19459;53.044;8.910;2023-06-10T02:15:27;14.80;99.90
33095;DHT22;19459;53.044;8.910;2023-06-10T02:17:53;14.70;99.90
33095;DHT22;19459;53.044;8.910;2023-06-10T02:20:20;14.70;99.90
33095;DHT22;19459;53.044;8.910;2023-06-10T02:22:46;14.60;99.90
33095;DHT22;19459;53.044;8.910;2023-06-10T02:25:12;14.60;99.90
33095;DHT22;19459;53.044;8.910;2023-06-10T02:27:38;14.50;99.90
33095;DHT22;19459;53.044;8.910;2023-06-10T02:30:04;14.50;99.90
33095;DHT22;19459;53.044;8.910;2023-06-10T02:32:30;14.40;99.90
33095;DHT22;19459;53.044;8.910;2023-06-10T02:34:56;14.40;99.90
33095;DHT22;19459;53.044;8.910;2023-06-10T02:37:23;14.40;99.90
33095;DHT22;19459;53.044;8.910;2023-06-10T02:39:48;14.30;99.90
33095;DHT22;19459;53.044;8.910;2023-06-10T02:42:14;14.30;99.90
33095;DHT22;19459;53.044;8.910;2023-06-10T02:44:40;14.20;99.90
33095;DHT22;19459;53.044;8.910;2023-06-10T02:47:06;14.20;99.90
33095;DHT22;19459;53.044;8.910;2023-06-10T02:49:31;14.20;99.90
33095;DHT22;19459;53.044;8.910;2023-06-10T02:51:57;14.20;99.90
33095;DHT22;19459;53.044;8.910;2023-06-10T02:54:24;14.20;99.90
33095;DHT22;19459;53.044;8.910;2023-06-10T02:56:52;14.20;99.90
33095;DHT22;19459;53.044;8.910;2023-06-10T02:59:18;14.20;99.90
33095;DHT22;19459;53.044;8.910;2023-06-10T03:01:45;14.10;99.90
33095;DHT22;19459;53.044;8.910;2023-06-10T03:04:11;14.10;99.90
33095;DHT22;19459;53.044;8.910;2023-06-10T03:06:39;14.10;99.90
33095;DHT22;19459;53.044;8.910;2023-06-10T03:09:06;14.10;99.90
33095;DHT22;19459;53.044;8.910;2023-06-10T03:11:35;14.20;99.90
33095;DHT22;19459;53.044;8.910;2023-06-10T03:14:01;14.10;99.90
33095;DHT22;19459;53.044;8.910;2023-06-10T03:16:27;14.10;99.90
33095;DHT22;19459;53.044;8.910;2023-06-10T03:18:53;14.10;99.90
33095;DHT22;19459;53.044;8.910;2023-06-10T03:21:19;14.20;99.90
33095;DHT22;19459;53.044;8.910;2023-06-10T03:23:45;14.20;99.90
33095;DHT22;19459;53.044;8.910;2023-06-10T03:26:11;14.20;99.90
33095;DHT22;19459;53.044;8.910;2023-06-10T03:28:40;14.30;99.90
33095;DHT22;19459;53.044;8.910;2023-06-10T03:31:06;14.30;99.90
33095;DHT22;19459;53.044;8.910;2023-06-10T03:33:32;14.30;99.90
33095;DHT22;19459;53.044;8.910;2023-06-10T03:35:58;14.40;99.90
33095;DHT22;19459;53.044;8.910;2023-06-10T03:38:24;14.40;99.90
33095;DHT22;19459;53.044;8.910;2023-06-10T03:40:50;14.40;99.90
33095;DHT22;19459;53.044;8.910;2023-06-10T03:43:16;14.40;99.90
33095;DHT22;19459;53.044;8.910;2023-06-10T03:45:42;14.40;99.90
33095;DHT22;19459;53.044;8.910;2023-06-10T03:48:08;14.40;99.90
33095;DHT22;19459;53.044;8.910;2023-06-10T03:50:34;14.50;99.90
33095;DHT22;19459;53.044;8.910;2023-06-10T03:53:01;14.50;99.90
33095;DHT22;19459;53.044;8.910;2023-06-10T03:55:27;14.50;99.90
33095;DHT22;19459;53.044;8.910;2023-06-10T03:57:53;14.50;99.90
33095;DHT22;19459;53.044;8.910;2023-06-10T04:00:19;14.50;99.90
33095;DHT22;19459;53.044;8.910;2023-06-10T04:02:47;14.50;99.90
33095;DHT22;19459;53.044;8.910;2023-06-10T04:05:15;14.50;99.90
33095;DHT22;19459;53.044;8.910;2023-06-10T04:07:42;14.60;99.90
33095;DHT22;19459;53.044;8.910;2023-06-10T04:10:10;14.60;99.90
33095;DHT22;19459;53.044;8.910;2023-06-10T04:12:36;14.70;99.90
33095;DHT22;19459;53.044;8.910;2023-06-10T04:15:04;14.70;99.90
33095;DHT22;19459;53.044;8.910;2023-06-10T04:17:30;14.70;99.90
33095;DHT22;19459;53.044;8.910;2023-06-10T04:19:56;14.70;99.90
33095;DHT22;19459;53.044;8.910;2023-06-10T04:22:23;14.70;99.90
33095;DHT22;19459;53.044;8.910;2023-06-10T04:24:49;14.70;99.90
33095;DHT22;19459;53.044;8.910;2023-06-10T04:27:15;14.80;99.90
33095;DHT22;19459;53.044;8.910;2023-06-10T04:29:41;14.70;99.90
33095;DHT22;19459;53.044;8.910;2023-06-10T04:32:07;14.70;99.90
33095;DHT22;19459;53.044;8.910;2023-06-10T04:34:33;14.70;99.90
33095;DHT22;19459;53.044;8.910;2023-06-10T04:37:00;14.70;99.90
33095;DHT22;19459;53.044;8.910;2023-06-10T04:39:25;14.70;99.90
33095;DHT22;19459;53.044;8.910;2023-06-10T04:41:51;14.60;99.90
33095;DHT22;19459;53.044;8.910;2023-06-10T04:44:17;14.60;99.90
33095;DHT22;19459;53.044;8.910;2023-06-10T04:46:44;14.50;99.90
33095;DHT22;19459;53.044;8.910;2023-06-10T04:49:10;14.60;99.90
33095;DHT22;19459;53.044;8.910;2023-06-10T04:51:35;14.60;99.90
33095;DHT22;19459;53.044;8.910;2023-06-10T04:54:01;14.60;99.90
33095;DHT22;19459;53.044;8.910;2023-06-10T04:56:29;14.60;99.90
33095;DHT22;19459;53.044;8.910;2023-06-10T04:58:59;14.60;99.90
33095;DHT22;19459;53.044;8.910;2023-06-10T05:01:25;14.70;99.90
33095;DHT22;19459;53.044;8.910;2023-06-10T05:03:51;14.80;99.90
33095;DHT22;19459;53.044;8.910;2023-06-10T05:06:17;14.80;99.90
33095;DHT22;19459;53.044;8.910;2023-06-10T05:08:43;14.80;99.90
33095;DHT22;19459;53.044;8.910;2023-06-10T05:11:09;14.80;99.90
33095;DHT22;19459;53.044;8.910;2023-06-10T05:13:35;14.90;99.90
33095;DHT22;19459;53.044;8.910;2023-06-10T05:16:01;14.90;99.90
33095;DHT22;19459;53.044;8.910;2023-06-10T05:18:27;15.00;99.90
33095;DHT22;19459;53.044;8.910;2023-06-10T05:20:53;15.00;99.90
33095;DHT22;19459;53.044;8.910;2023-06-10T05:23:20;15.10;99.90
33095;DHT22;19459;53.044;8.910;2023-06-10T05:25:48;15.10;99.90
33095;DHT22;19459;53.044;8.910;2023-06-10T05:28:14;15.00;99.90
33095;DHT22;19459;53.044;8.910;2023-06-10T05:30:40;15.10;99.90
33095;DHT22;19459;53.044;8.910;2023-06-10T05:33:06;15.00;99.90
33095;DHT22;19459;53.044;8.910;2023-06-10T05:35:31;15.00;99.90
33095;DHT22;19459;53.044;8.910;2023-06-10T05:37:57;15.10;99.90
33095;DHT22;19459;53.044;8.910;2023-06-10T05:40:23;15.20;99.90
33095;DHT22;19459;53.044;8.910;2023-06-10T05:42:49;15.30;99.90
33095;DHT22;19459;53.044;8.910;2023-06-10T05:45:15;15.40;99.90
33095;DHT22;19459;53.044;8.910;2023-06-10T05:47:41;15.50;99.90
33095;DHT22;19459;53.044;8.910;2023-06-10T05:50:07;15.50;99.90
33095;DHT22;19459;53.044;8.910;2023-06-10T05:52:35;15.50;99.90
33095;DHT22;19459;53.044;8.910;2023-06-10T05:55:02;15.50;99.90
33095;DHT22;19459;53.044;8.910;2023-06-10T05:57:28;15.50;99.90
33095;DHT22;19459;53.044;8.910;2023-06-10T05:59:54;15.50;99.90
33095;DHT22;19459;53.044;8.910;2023-06-10T06:02:20;15.60;99.90
33095;DHT22;19459;53.044;8.910;2023-06-10T06:04:46;15.60;99.90
33095;DHT22;19459;53.044;8.910;2023-06-10T06:07:12;15.70;99.90
33095;DHT22;19459;53.044;8.910;2023-06-10T06:09:37;15.70;99.90
33095;DHT22;19459;53.044;8.910;2023-06-10T06:12:03;15.80;99.90
33095;DHT22;19459;53.044;8.910;2023-06-10T06:14:32;15.90;99.90
33095;DHT22;19459;53.044;8.910;2023-06-10T06:16:58;15.90;99.90
33095;DHT22;19459;53.044;8.910;2023-06-10T06:19:23;15.90;99.90
33095;DHT22;19459;53.044;8.910;2023-06-10T06:21:49;16.00;99.90
33095;DHT22;19459;53.044;8.910;2023-06-10T06:24:16;15.90;99.90
33095;DHT22;19459;53.044;8.910;2023-06-10T06:26:41;16.00;99.90
33095;DHT22;19459;53.044;8.910;2023-06-10T06:29:07;16.00;99.90
33095;DHT22;19459;53.044;8.910;2023-06-10T06:31:33;16.00;99.90
33095;DHT22;19459;53.044;8.910;2023-06-10T06:33:59;16.10;99.90
33095;DHT22;19459;53.044;8.910;2023-06-10T06:36:25;16.20;99.90
33095;DHT22;19459;53.044;8.910;2023-06-10T06:38:51;16.30;99.90
33095;DHT22;19459;53.044;8.910;2023-06-10T06:41:17;16.30;99.90
33095;DHT22;19459;53.044;8.910;2023-06-10T06:43:43;16.30;99.90
33095;DHT22;19459;53.044;8.910;2023-06-10T06:46:09;16.30;99.90
33095;DHT22;19459;53.044;8.910;2023-06-10T06:48:35;16.30;99.90
33095;DHT22;19459;53.044;8.910;2023-06-10T06:51:00;16.30;99.90
33095;DHT22;19459;53.044;8.910;2023-06-10T06:53:26;16.50;99.90
33095;DHT22;19459;53.044;8.910;2023-06-10T06:55:52;16.70;99.90
33095;DHT22;19459;53.044;8.910;2023-06-10T06:58:18;16.80;99.90
33095;DHT22;19459;53.044;8.910;2023-06-10T07:00:45;17.00;99.90
33095;DHT22;19459;53.044;8.910;2023-06-10T07:03:11;17.10;99.90
33095;DHT22;19459;53.044;8.910;2023-06-10T07:05:37;17.30;99.90
33095;DHT22;19459;53.044;8.910;2023-06-10T07:08:04;17.40;99.90
33095;DHT22;19459;53.044;8.910;2023-06-10T07:10:30;17.70;99.90
33095;DHT22;19459;53.044;8.910;2023-06-10T07:12:56;17.60;99.90
33095;DHT22;19459;53.044;8.910;2023-06-10T07:15:21;17.70;99.90
33095;DHT22;19459;53.044;8.910;2023-06-10T07:17:47;17.90;99.90
33095;DHT22;19459;53.044;8.910;2023-06-10T07:20:13;18.00;99.90
33095;DHT22;19459;53.044;8.910;2023-06-10T07:22:42;18.20;99.90
33095;DHT22;19459;53.044;8.910;2023-06-10T07:25:08;18.40;99.90
33095;DHT22;19459;53.044;8.910;2023-06-10T07:27:34;18.50;99.90
33095;DHT22;19459;53.044;8.910;2023-06-10T07:30:01;18.60;99.90
33095;DHT22;19459;53.044;8.910;2023-06-10T07:32:27;18.70;99.90
33095;DHT22;19459;53.044;8.910;2023-06-10T07:34:53;18.80;99.90
33095;DHT22;19459;53.044;8.910;2023-06-10T07:37:19;19.00;99.90
33095;DHT22;19459;53.044;8.910;2023-06-10T07:39:45;19.20;99.90
33095;DHT22;19459;53.044;8.910;2023-06-10T07:42:11;19.40;99.90
33095;DHT22;19459;53.044;8.910;2023-06-10T07:44:36;19.60;99.90
33095;DHT22;19459;53.044;8.910;2023-06-10T07:47:02;19.90;99.90
33095;DHT22;19459;53.044;8.910;2023-06-10T07:49:28;20.00;99.90
33095;DHT22;19459;53.044;8.910;2023-06-10T07:51:55;20.10;99.90
33095;DHT22;19459;53.044;8.910;2023-06-10T07:54:21;20.20;99.90
33095;DHT22;19459;53.044;8.910;2023-06-10T07:56:47;20.30;99.90
33095;DHT22;19459;53.044;8.910;2023-06-10T07:59:13;20.40;99.90
33095;DHT22;19459;53.044;8.910;2023-06-10T08:01:39;20.30;99.90
33095;DHT22;19459;53.044;8.910;2023-06-10T08:04:06;20.50;99.90
33095;DHT22;19459;53.044;8.910;2023-06-10T08:06:32;20.70;99.90
33095;DHT22;19459;53.044;8.910;2023-06-10T08:08:58;21.00;99.90
33095;DHT22;19459;53.044;8.910;2023-06-10T08:11:23;21.30;99.90
33095;DHT22;19459;53.044;8.910;2023-06-10T08:13:50;21.60;99.90
33095;DHT22;19459;53.044;8.910;2023-06-10T08:16:16;21.50;99.90
33095;DHT22;19459;53.044;8.910;2023-06-10T08:18:42;21.60;99.90
33095;DHT22;19459;53.044;8.910;2023-06-10T08:21:08;21.70;99.90
33095;DHT22;19459;53.044;8.910;2023-06-10T08:23:34;21.60;99.90
33095;DHT22;19459;53.044;8.910;2023-06-10T08:25:59;21.70;99.90
33095;DHT22;19459;53.044;8.910;2023-06-10T08:28:25;22.00;99.90
33095;DHT22;19459;53.044;8.910;2023-06-10T08:30:51;22.30;99.90
33095;DHT22;19459;53.044;8.910;2023-06-10T08:33:17;22.40;99.70
33095;DHT22;19459;53.044;8.910;2023-06-10T08:35:42;22.50;99.90
33095;DHT22;19459;53.044;8.910;2023-06-10T08:38:08;22.60;98.70
33095;DHT22;19459;53.044;8.910;2023-06-10T08:40:34;22.70;99.00
33095;DHT22;19459;53.044;8.910;2023-06-10T08:43:08;22.80;99.40
33095;DHT22;19459;53.044;8.910;2023-06-10T08:45:37;23.20;99.30
33095;DHT22;19459;53.044;8.910;2023-06-10T08:48:03;23.40;98.20
33095;DHT22;19459;53.044;8.910;2023-06-10T08:50:35;23.50;98.10
33095;DHT22;19459;53.044;8.910;2023-06-10T08:53:04;23.60;97.30
33095;DHT22;19459;53.044;8.910;2023-06-10T08:55:40;23.80;97.80
33095;DHT22;19459;53.044;8.910;2023-06-10T08:58:07;23.90;96.70
33095;DHT22;19459;53.044;8.910;2023-06-10T09:00:34;24.10;97.10
33095;DHT22;19459;53.044;8.910;2023-06-10T09:03:00;24.30;97.00
33095;DHT22;19459;53.044;8.910;2023-06-10T09:05:29;24.50;96.90
33095;DHT22;19459;53.044;8.910;2023-06-10T09:07:58;24.70;96.40
33095;DHT22;19459;53.044;8.910;2023-06-10T09:10:32;24.80;95.90
33095;DHT22;19459;53.044;8.910;2023-06-10T09:12:58;25.20;95.90
33095;DHT22;19459;53.044;8.910;2023-06-10T09:15:24;25.10;95.30
33095;DHT22;19459;53.044;8.910;2023-06-10T09:17:50;24.90;94.90
33095;DHT22;19459;53.044;8.910;2023-06-10T09:20:17;25.20;95.80
33095;DHT22;19459;53.044;8.910;2023-06-10T09:22:43;25.40;95.20
33095;DHT22;19459;53.044;8.910;2023-06-10T09:25:11;25.90;96.00
33095;DHT22;19459;53.044;8.910;2023-06-10T09:27:49;26.00;94.50
33095;DHT22;19459;53.044;8.910;2023-06-10T09:30:30;26.20;93.80
33095;DHT22;19459;53.044;8.910;2023-06-10T09:32:57;26.10;93.30
33095;DHT22;19459;53.044;8.910;2023-06-10T09:35:25;25.60;94.70
33095;DHT22;19459;53.044;8.910;2023-06-10T09:37:59;26.00;94.10
33095;DHT22;19459;53.044;8.910;2023-06-10T09:40:26;26.40;93.60
33095;DHT22;19459;53.044;8.910;2023-06-10T09:42:58;26.60;93.80
33095;DHT22;19459;53.044;8.910;2023-06-10T09:45:30;26.90;94.10
33095;DHT22;19459;53.044;8.910;2023-06-10T09:48:00;27.00;92.90
33095;DHT22;19459;53.044;8.910;2023-06-10T09:50:26;27.00;92.00
33095;DHT22;19459;53.044;8.910;2023-06-10T09:52:52;26.80;92.00
33095;DHT22;19459;53.044;8.910;2023-06-10T09:55:18;26.90;92.60
33095;DHT22;19459;53.044;8.910;2023-06-10T09:57:44;27.20;92.00
33095;DHT22;19459;53.044;8.910;2023-06-10T10:00:15;27.30;91.70
33095;DHT22;19459;53.044;8.910;2023-06-10T10:02:52;27.60;93.10
33095;DHT22;19459;53.044;8.910;2023-06-10T10:05:20;28.00;91.90
33095;DHT22;19459;53.044;8.910;2023-06-10T10:07:47;28.20;91.30
33095;DHT22;19459;53.044;8.910;2023-06-10T10:10:15;28.30;90.20
33095;DHT22;19459;53.044;8.910;2023-06-10T10:12:43;28.50;90.10
33095;DHT22;19459;53.044;8.910;2023-06-10T10:15:12;28.20;89.50
33095;DHT22;19459;53.044;8.910;2023-06-10T10:20:48;28.50;90.30
33095;DHT22;19459;53.044;8.910;2023-06-10T10:23:31;28.30;88.50
33095;DHT22;19459;53.044;8.910;2023-06-10T10:26:04;28.60;86.40
33095;DHT22;19459;53.044;8.910;2023-06-10T10:28:45;28.50;88.10
33095;DHT22;19459;53.044;8.910;2023-06-10T10:31:15;28.60;86.00
33095;DHT22;19459;53.044;8.910;2023-06-10T10:36:27;29.20;88.90
33095;DHT22;19459;53.044;8.910;2023-06-10T10:38:54;29.20;85.10
33095;DHT22;19459;53.044;8.910;2023-06-10T10:41:20;29.70;87.60
33095;DHT22;19459;53.044;8.910;2023-06-10T10:43:47;29.70;83.50
33095;DHT22;19459;53.044;8.910;2023-06-10T10:46:15;29.70;85.30
33095;DHT22;19459;53.044;8.910;2023-06-10T10:48:43;29.80;85.50
33095;DHT22;19459;53.044;8.910;2023-06-10T10:51:10;30.10;84.60
33095;DHT22;19459;53.044;8.910;2023-06-10T10:53:39;30.10;81.20
33095;DHT22;19459;53.044;8.910;2023-06-10T10:56:13;30.20;81.20
33095;DHT22;19459;53.044;8.910;2023-06-10T10:58:40;30.20;80.50
33095;DHT22;19459;53.044;8.910;2023-06-10T11:01:13;30.30;81.10
33095;DHT22;19459;53.044;8.910;2023-06-10T11:03:46;30.70;81.10
33095;DHT22;19459;53.044;8.910;2023-06-10T11:06:17;30.90;78.20
33095;DHT22;19459;53.044;8.910;2023-06-10T11:11:19;31.20;80.40
33095;DHT22;19459;53.044;8.910;2023-06-10T11:16:28;31.40;77.30
33095;DHT22;19459;53.044;8.910;2023-06-10T11:18:55;31.70;78.50
33095;DHT22;19459;53.044;8.910;2023-06-10T11:21:25;31.70;78.30
33095;DHT22;19459;53.044;8.910;2023-06-10T11:23:51;31.90;80.10
33095;DHT22;19459;53.044;8.910;2023-06-10T11:31:28;32.20;75.90
33095;DHT22;19459;53.044;8.910;2023-06-10T11:33:57;32.20;77.60
33095;DHT22;19459;53.044;8.910;2023-06-10T11:36:28;32.30;75.10
33095;DHT22;19459;53.044;8.910;2023-06-10T11:38:58;32.20;76.50
33095;DHT22;19459;53.044;8.910;2023-06-10T11:41:26;32.20;77.10
33095;DHT22;19459;53.044;8.910;2023-06-10T11:43:54;32.20;74.70
33095;DHT22;19459;53.044;8.910;2023-06-10T11:46:22;32.40;74.90
33095;DHT22;19459;53.044;8.910;2023-06-10T11:48:56;32.20;74.70
33095;DHT22;19459;53.044;8.910;2023-06-10T11:51:27;31.20;73.50
33095;DHT22;19459;53.044;8.910;2023-06-10T11:53:56;31.40;74.00
33095;DHT22;19459;53.044;8.910;2023-06-10T11:56:29;31.80;74.40
33095;DHT22;19459;53.044;8.910;2023-06-10T11:58:59;32.00;73.80
33095;DHT22;19459;53.044;8.910;2023-06-10T12:01:34;32.20;73.60
33095;DHT22;19459;53.044;8.910;2023-06-10T12:04:08;32.30;74.90
33095;DHT22;19459;53.044;8.910;2023-06-10T12:06:49;32.50;72.80
33095;DHT22;19459;53.044;8.910;2023-06-10T12:09:27;32.50;73.60
33095;DHT22;19459;53.044;8.910;2023-06-10T12:12:00;32.40;74.20
33095;DHT22;19459;53.044;8.910;2023-06-10T12:20:00;32.50;73.60
33095;DHT22;19459;53.044;8.910;2023-06-10T12:22:27;33.10;73.80
33095;DHT22;19459;53.044;8.910;2023-06-10T12:25:08;33.30;71.80
33095;DHT22;19459;53.044;8.910;2023-06-10T12:27:35;33.50;73.20
33095;DHT22;19459;53.044;8.910;2023-06-10T12:30:03;33.60;71.20
33095;DHT22;19459;53.044;8.910;2023-06-10T12:35:07;33.90;72.00
33095;DHT22;19459;53.044;8.910;2023-06-10T12:37:34;33.80;71.10
33095;DHT22;19459;53.044;8.910;2023-06-10T12:40:01;33.70;71.40
33095;DHT22;19459;53.044;8.910;2023-06-10T12:42:29;33.60;70.70
33095;DHT22;19459;53.044;8.910;2023-06-10T12:44:55;33.60;70.80
33095;DHT22;19459;53.044;8.910;2023-06-10T12:47:32;33.60;71.00
33095;DHT22;19459;53.044;8.910;2023-06-10T12:50:01;33.40;68.30
33095;DHT22;19459;53.044;8.910;2023-06-10T12:52:27;33.50;68.80
33095;DHT22;19459;53.044;8.910;2023-06-10T12:54:54;33.40;71.40
33095;DHT22;19459;53.044;8.910;2023-06-10T12:57:21;33.50;70.40
33095;DHT22;19459;53.044;8.910;2023-06-10T12:59:47;33.70;68.70
33095;DHT22;19459;53.044;8.910;2023-06-10T13:02:19;33.70;69.50
33095;DHT22;19459;53.044;8.910;2023-06-10T13:04:46;33.80;68.60
33095;DHT22;19459;53.044;8.910;2023-06-10T13:07:13;34.00;71.00
33095;DHT22;19459;53.044;8.910;2023-06-10T13:09:38;33.90;66.70
33095;DHT22;19459;53.044;8.910;2023-06-10T13:12:05;33.30;66.90
33095;DHT22;19459;53.044;8.910;2023-06-10T13:14:31;33.60;69.30
33095;DHT22;19459;53.044;8.910;2023-06-10T13:16:57;33.70;69.30
33095;DHT22;19459;53.044;8.910;2023-06-10T13:19:23;33.90;69.80
33095;DHT22;19459;53.044;8.910;2023-06-10T13:21:52;33.90;69.50
33095;DHT22;19459;53.044;8.910;2023-06-10T13:24:18;32.80;65.20
33095;DHT22;19459;53.044;8.910;2023-06-10T13:26:45;32.80;70.00
33095;DHT22;19459;53.044;8.910;2023-06-10T13:29:11;33.10;71.20
33095;DHT22;19459;53.044;8.910;2023-06-10T13:31:40;33.60;71.90
33095;DHT22;19459;53.044;8.910;2023-06-10T13:34:06;34.00;73.00
33095;DHT22;19459;53.044;8.910;2023-06-10T13:36:32;33.80;70.70
33095;DHT22;19459;53.044;8.910;2023-06-10T13:38:58;33.80;72.60
33095;DHT22;19459;53.044;8.910;2023-06-10T13:41:24;33.50;71.60
33095;DHT22;19459;53.044;8.910;2023-06-10T13:43:50;33.60;73.60
33095;DHT22;19459;53.044;8.910;2023-06-10T13:46:16;33.80;73.10
33095;DHT22;19459;53.044;8.910;2023-06-10T13:48:41;34.00;74.80
33095;DHT22;19459;53.044;8.910;2023-06-10T13:51:07;33.50;68.40
33095;DHT22;19459;53.044;8.910;2023-06-10T13:53:34;33.60;71.20
33095;DHT22;19459;53.044;8.910;2023-06-10T13:56:00;33.80;72.30
33095;DHT22;19459;53.044;8.910;2023-06-10T13:58:26;33.90;71.30
33095;DHT22;19459;53.044;8.910;2023-06-10T14:00:52;34.10;71.90
33095;DHT22;19459;53.044;8.910;2023-06-10T14:03:18;34.30;75.10
33095;DHT22;19459;53.044;8.910;2023-06-10T14:05:44;34.10;72.10
33095;DHT22;19459;53.044;8.910;2023-06-10T14:08:09;33.90;72.80
33095;DHT22;19459;53.044;8.910;2023-06-10T14:10:35;34.00;72.00
33095;DHT22;19459;53.044;8.910;2023-06-10T14:13:01;33.70;70.60
33095;DHT22;19459;53.044;8.910;2023-06-10T14:15:27;34.00;73.40
33095;DHT22;19459;53.044;8.910;2023-06-10T14:17:53;34.30;71.20
33095;DHT22;19459;53.044;8.910;2023-06-10T14:20:19;34.50;71.90
33095;DHT22;19459;53.044;8.910;2023-06-10T14:22:45;34.50;71.60
33095;DHT22;19459;53.044;8.910;2023-06-10T14:25:11;34.70;75.70
33095;DHT22;19459;53.044;8.910;2023-06-10T14:27:37;34.50;70.70
33095;DHT22;19459;53.044;8.910;2023-06-10T14:30:03;34.70;70.90
33095;DHT22;19459;53.044;8.910;2023-06-10T14:32:30;34.40;72.30
33095;DHT22;19459;53.044;8.910;2023-06-10T14:34:56;33.40;69.70
33095;DHT22;19459;53.044;8.910;2023-06-10T14:37:22;33.80;72.00
33095;DHT22;19459;53.044;8.910;2023-06-10T14:39:48;34.10;74.40
33095;DHT22;19459;53.044;8.910;2023-06-10T14:42:14;34.40;72.90
33095;DHT22;19459;53.044;8.910;2023-06-10T14:44:40;34.50;73.10
33095;DHT22;19459;53.044;8.910;2023-06-10T14:47:06;34.50;73.60
33095;DHT22;19459;53.044;8.910;2023-06-10T14:49:32;34.70;73.20
33095;DHT22;19459;53.044;8.910;2023-06-10T14:51:57;34.30;71.40
33095;DHT22;19459;53.044;8.910;2023-06-10T14:54:23;34.00;70.50
33095;DHT22;19459;53.044;8.910;2023-06-10T14:56:49;33.80;71.90
33095;DHT22;19459;53.044;8.910;2023-06-10T14:59:15;34.10;74.30
33095;DHT22;19459;53.044;8.910;2023-06-10T15:01:40;34.40;74.10
33095;DHT22;19459;53.044;8.910;2023-06-10T15:04:06;34.30;72.80
33095;DHT22;19459;53.044;8.910;2023-06-10T15:06:32;34.40;71.30
33095;DHT22;19459;53.044;8.910;2023-06-10T15:08:57;34.40;73.30
33095;DHT22;19459;53.044;8.910;2023-06-10T15:11:23;34.60;73.80
33095;DHT22;19459;53.044;8.910;2023-06-10T15:13:49;34.70;72.60
33095;DHT22;19459;53.044;8.910;2023-06-10T15:16:15;33.90;71.80
33095;DHT22;19459;53.044;8.910;2023-06-10T15:18:41;34.10;71.60
33095;DHT22;19459;53.044;8.910;2023-06-10T15:21:07;34.30;72.10
33095;DHT22;19459;53.044;8.910;2023-06-10T15:23:33;34.30;72.10
33095;DHT22;19459;53.044;8.910;2023-06-10T15:25:59;33.90;69.10
33095;DHT22;19459;53.044;8.910;2023-06-10T15:28:24;33.90;70.00
33095;DHT22;19459;53.044;8.910;2023-06-10T15:30:50;33.80;68.90
33095;DHT22;19459;53.044;8.910;2023-06-10T15:33:16;33.80;70.50
33095;DHT22;19459;53.044;8.910;2023-06-10T15:35:42;33.60;70.90
33095;DHT22;19459;53.044;8.910;2023-06-10T15:38:07;33.70;70.70
33095;DHT22;19459;53.044;8.910;2023-06-10T15:40:33;33.70;71.60
33095;DHT22;19459;53.044;8.910;2023-06-10T15:43:00;34.00;72.60
33095;DHT22;19459;53.044;8.910;2023-06-10T15:45:26;34.10;71.30
33095;DHT22;19459;53.044;8.910;2023-06-10T15:47:51;34.10;70.40
33095;DHT22;19459;53.044;8.910;2023-06-10T15:50:17;34.10;69.20
33095;DHT22;19459;53.044;8.910;2023-06-10T15:52:43;33.80;71.80
33095;DHT22;19459;53.044;8.910;2023-06-10T15:55:09;33.60;74.00
33095;DHT22;19459;53.044;8.910;2023-06-10T15:57:35;33.70;73.70
33095;DHT22;19459;53.044;8.910;2023-06-10T16:00:01;33.30;71.90